EDT,Max TemperatureF,Mean TemperatureF,Min TemperatureF,Max Dew PointF,MeanDew PointF,Min DewpointF,Max Humidity, Mean Humidity, Min Humidity, Max Sea Level PressureIn, Mean Sea Level PressureIn, Min Sea Level PressureIn, Max VisibilityMiles, Mean VisibilityMiles, Min VisibilityMiles, Max Wind SpeedMPH, Mean Wind SpeedMPH, Max Gust SpeedMPH,PrecipitationIn, CloudCover, Events, WindDirDegrees
2013-10-1,72,63,54,61,59,52,97,83,68,30.01,29.98,29.94,10,7,2,17,8,23,0.00,5,,198
2013-10-2,80,68,55,62,53,40,100,64,28,30.11,30.06,29.97,10,7,0,8,3,10,0.00,0,Fog,300
2013-10-3,73,64,54,67,60,50,93,84,75,30.05,29.99,29.92,10,8,3,16,6,21,0.03,6,Rain,186
2013-10-4,79,71,62,68,65,62,93,80,67,30.02,29.99,29.93,10,9,2,16,4,32,0.59,5,Rain-Thunderstorm,187
2013-10-5,78,72,66,68,66,64,93,84,74,30.02,29.93,29.82,10,7,2,17,7,22,0.10,6,Rain,154
2013-10-6,68,60,51,66,58,44,93,82,71,29.83,29.76,29.71,10,8,2,17,7,22,0.22,7,Rain,224
2013-10-7,61,52,43,50,43,39,93,72,51,30.14,29.90,29.75,10,9,2,21,9,25,0.15,4,Rain,237
2013-10-8,71,57,43,49,45,41,92,68,44,30.26,30.22,30.14,10,10,10,15,5,21,0.00,0,,164
2013-10-9,72,58,44,48,44,41,93,64,34,30.31,30.25,30.20,10,10,6,15,2,26,0.00,0,,128
2013-10-10,73,57,40,49,44,39,93,63,33,30.22,30.18,30.13,10,10,6,9,1,12,0.00,0,Fog,125
2013-10-11,73,56,39,51,45,39,93,64,35,30.17,30.11,30.06,10,10,10,12,2,24,0.00,0,,142
2013-10-12,78,62,46,63,52,42,93,66,39,30.12,30.07,30.01,10,9,3,17,6,21,0.14,2,Rain,212
2013-10-13,64,54,43,57,44,40,100,70,40,30.40,30.30,30.14,10,10,6,15,6,22,0.00,0,,310
2013-10-14,64,51,38,43,40,37,96,70,43,30.45,30.36,30.25,10,10,9,12,3,25,0.00,0,,36
2013-10-15,64,52,39,61,51,39,97,88,78,30.24,29.98,29.83,10,7,2,15,6,18,0.20,5,Rain,177
2013-10-16,62,55,47,59,48,43,93,85,77,29.94,29.88,29.83,10,8,2,17,9,22,0.02,7,Rain,225
2013-10-17,52,49,45,47,46,45,93,88,83,29.92,29.87,29.79,10,7,2,16,7,21,0.11,8,Rain,226
2013-10-18,60,50,39,45,41,38,96,74,51,29.96,29.91,29.87,10,10,7,18,8,23,0.00,4,,223
2013-10-19,53,48,42,43,39,31,89,67,44,29.91,29.84,29.78,10,10,10,23,8,30,0.10,7,Rain,229
2013-10-20,58,49,40,43,40,37,89,68,47,29.92,29.85,29.80,10,10,4,24,10,30,0.08,6,Rain,204
2013-10-21,56,49,41,48,40,27,93,74,55,29.93,29.87,29.82,10,10,9,23,10,31,0.20,7,Rain,245
2013-10-22,47,40,33,34,30,26,85,69,53,29.96,29.93,29.91,10,10,10,16,7,22,0.00,6,,252
2013-10-23,44,37,30,35,32,29,92,77,62,29.99,29.93,29.86,10,9,5,16,5,18,0.07,7,Rain,331
2013-10-24,42,38,33,34,33,30,96,83,70,30.26,30.07,29.96,10,8,1,15,6,20,0.12,8,Rain-Snow,263
2013-10-25,48,41,33,36,31,26,96,73,49,30.38,30.27,30.11,10,10,10,18,9,29,T,6,Rain,239
2013-10-26,52,47,42,38,31,25,67,56,45,30.07,29.92,29.81,10,10,10,25,14,35,T,7,,262
2013-10-27,54,46,37,36,32,29,85,62,38,30.07,30.04,30.00,10,10,10,16,6,23,0.00,3,,220
2013-10-28,54,43,32,37,33,29,89,72,54,30.40,30.26,30.09,10,10,10,12,4,17,0.00,2,,62
2013-10-29,55,45,34,38,34,30,82,68,54,30.44,30.36,30.23,10,10,10,10,4,13,0.00,3,,121
2013-10-30,64,51,37,55,47,36,93,71,48,30.22,30.08,29.91,10,7,2,14,5,17,0.73,5,Rain-Thunderstorm,167
2013-10-31,63,58,53,61,57,52,97,91,84,29.91,29.55,29.16,10,6,2,24,14,35,1.80,8,Rain,198